Dades meteomassalio
Diari Summary for Abril 2, 2017 Units:  English    Metric   Both
« Previous Day
Next Day »
Diari Semanal Mensual Anual Personalitzat
  Maxima: Minima: Mijana:
Temperatura: TemperatureC °F 8.4 °F 9.4 °F
Rosada: DewpointC °F 3.6 °F 3.9 °F
Humitat: Humidity % 58 % 68 %
Velocitat del vent: WindSpeedKMH mph 14.8 mph 26.5 mph
Racha vent: WindSpeedGustKMH mph - -
Vent:- - WNW
Pressio: PressurehPa in 1019.5 in -
Pluja: 0.0 in    
Historical Graphs
 
 
Tabular Data for Abril 2, 2017
Time Temperature Dew Point Pressure Wind Wind Speed Wind Gust Humidity Rainfall Rate (Hourly) solar Conditions
TemperatureC °F DewpointC °F PressurehPa in Calm     Humidity % HourlyPrecipMM in SolarRadiationWatts/m^2 W/m2 Conditions
00:04 10.6 °F 4.3 °F 1021.2 in WNW 18.5 mph 18.5 mph 65 % 0.0 in 0.0 W/m2 RA
00:09 10.6 °F 4.4 °F 1021.2 in West 20.9 mph 20.9 mph 66 % 0.0 in 0.0 W/m2 CLR
00:14 10.4 °F 4.3 °F 1021.2 in West 22.2 mph 22.2 mph 66 % 0.0 in 0.0 W/m2 CLR
00:19 10.3 °F 4.4 °F 1021.2 in WNW 18.5 mph 18.5 mph 67 % 0.0 in 0.0 W/m2 CLR
00:24 10.2 °F 4.5 °F 1021.2 in West 24.1 mph 24.1 mph 68 % 0.0 in 0.0 W/m2 CLR
00:29 10.1 °F 4.4 °F 1021.2 in West 20.4 mph 20.4 mph 68 % 0.0 in 0.0 W/m2 CLR
00:34 10.1 °F 4.4 °F 1021.2 in West 31.5 mph 31.5 mph 68 % 0.0 in 0.0 W/m2 CLR
00:39 10.1 °F 4.4 °F 1021.2 in West 22.2 mph 22.2 mph 68 % 0.0 in 0.0 W/m2 CLR
00:44 10.1 °F 4.4 °F 1020.9 in West 24.1 mph 24.1 mph 68 % 0.0 in 0.0 W/m2 CLR
00:49 10.0 °F 4.3 °F 1021.2 in West 24.1 mph 24.1 mph 68 % 0.0 in 0.0 W/m2 CLR
00:54 9.9 °F 4.3 °F 1021.2 in WNW 18.5 mph 18.5 mph 68 % 0.0 in 0.0 W/m2 CLR
00:59 9.8 °F 4.2 °F 1021.2 in WNW 22.2 mph 22.2 mph 68 % 0.0 in 0.0 W/m2 CLR
01:04 9.7 °F 4.1 °F 1021.2 in WNW 27.8 mph 27.8 mph 68 % 0.0 in 0.0 W/m2 CLR
01:09 9.6 °F 4.2 °F 1021.2 in NW 18.5 mph 18.5 mph 69 % 0.0 in 0.0 W/m2 CLR
01:14 9.6 °F 4.2 °F 1021.2 in WNW 20.4 mph 20.4 mph 69 % 0.0 in 0.0 W/m2 CLR
01:19 9.6 °F 4.2 °F 1020.9 in WNW 19.3 mph 19.3 mph 69 % 0.0 in 0.0 W/m2 CLR
01:24 9.4 °F 4.1 °F 1020.9 in WNW 22.2 mph 22.2 mph 69 % 0.0 in 0.0 W/m2 CLR
01:29 9.4 °F 4.0 °F 1020.9 in West 20.4 mph 20.4 mph 69 % 0.0 in 0.0 W/m2 CLR
01:34 9.5 °F 4.1 °F 1020.9 in West 22.2 mph 22.2 mph 69 % 0.0 in 0.0 W/m2 CLR
01:39 9.5 °F 4.1 °F 1020.9 in WNW 16.7 mph 16.7 mph 69 % 0.0 in 0.0 W/m2 CLR
01:44 9.4 °F 4.1 °F 1020.9 in West 20.4 mph 20.4 mph 69 % 0.0 in 0.0 W/m2 CLR
01:49 9.4 °F 4.0 °F 1020.9 in West 20.4 mph 20.4 mph 69 % 0.0 in 0.0 W/m2 CLR
01:54 9.4 °F 4.0 °F 1020.9 in WNW 18.5 mph 18.5 mph 69 % 0.0 in 0.0 W/m2 CLR
01:59 9.4 °F 4.1 °F 1020.9 in West 19.3 mph 19.3 mph 69 % 0.0 in 0.0 W/m2 CLR
02:04 9.5 °F 4.1 °F 1020.9 in West 20.4 mph 20.4 mph 69 % 0.0 in 0.0 W/m2 CLR
02:10 9.4 °F 4.0 °F 1020.9 in West 20.4 mph 20.4 mph 69 % 0.0 in 0.0 W/m2 CLR
02:15 9.3 °F 3.9 °F 1020.9 in West 14.8 mph 14.8 mph 69 % 0.0 in 0.0 W/m2 CLR
02:20 9.2 °F 4.1 °F 1020.9 in West 27.8 mph 27.8 mph 70 % 0.0 in 0.0 W/m2 CLR
02:25 9.2 °F 4.1 °F 1020.5 in West 24.1 mph 24.1 mph 70 % 0.0 in 0.0 W/m2 CLR
02:30 9.2 °F 4.0 °F 1020.5 in WNW 24.1 mph 24.1 mph 70 % 0.0 in 0.0 W/m2 CLR
02:35 9.1 °F 3.9 °F 1020.5 in WNW 19.3 mph 19.3 mph 70 % 0.0 in 0.0 W/m2 CLR
02:40 9.1 °F 4.1 °F 1020.5 in WNW 20.4 mph 20.4 mph 71 % 0.0 in 0.0 W/m2 CLR
02:45 9.1 °F 4.1 °F 1020.5 in West 27.8 mph 27.8 mph 71 % 0.0 in 0.0 W/m2 CLR
02:50 9.1 °F 4.1 °F 1020.5 in West 24.1 mph 24.1 mph 71 % 0.0 in 0.0 W/m2 CLR
02:55 9.1 °F 4.1 °F 1020.2 in WNW 31.5 mph 31.5 mph 71 % 0.0 in 0.0 W/m2 CLR
03:00 9.2 °F 4.1 °F 1020.5 in WNW 29.0 mph 29.0 mph 70 % 0.0 in 0.0 W/m2 CLR
03:05 9.2 °F 4.1 °F 1020.5 in WNW 22.2 mph 22.2 mph 70 % 0.0 in 0.0 W/m2 CLR
03:10 9.1 °F 4.1 °F 1020.5 in WNW 24.1 mph 24.1 mph 71 % 0.0 in 0.0 W/m2 CLR
03:15 9.1 °F 4.1 °F 1020.5 in WNW 25.9 mph 25.9 mph 71 % 0.0 in 0.0 W/m2 CLR
03:20 9.1 °F 4.1 °F 1020.5 in West 22.2 mph 22.2 mph 71 % 0.0 in 0.0 W/m2 CLR
03:25 9.1 °F 4.1 °F 1020.2 in West 25.9 mph 25.9 mph 71 % 0.0 in 0.0 W/m2 CLR
03:30 9.0 °F 4.0 °F 1020.2 in WNW 25.9 mph 25.9 mph 71 % 0.0 in 0.0 W/m2 CLR
03:35 8.9 °F 3.9 °F 1020.2 in WNW 22.2 mph 22.2 mph 71 % 0.0 in 0.0 W/m2 CLR
03:40 8.9 °F 3.9 °F 1020.2 in West 20.9 mph 20.9 mph 71 % 0.0 in 0.0 W/m2 CLR
03:45 8.8 °F 4.1 °F 1020.2 in WNW 25.9 mph 25.9 mph 72 % 0.0 in 0.0 W/m2 CLR
03:50 8.8 °F 4.0 °F 1020.2 in WNW 20.4 mph 20.4 mph 72 % 0.0 in 0.0 W/m2 CLR
03:55 8.7 °F 3.9 °F 1020.2 in WNW 27.8 mph 27.8 mph 72 % 0.0 in 0.0 W/m2 CLR
04:00 8.7 °F 3.9 °F 1020.2 in WNW 20.4 mph 20.4 mph 72 % 0.0 in 0.0 W/m2 CLR
04:05 8.7 °F 3.9 °F 1019.9 in NW 20.4 mph 20.4 mph 72 % 0.0 in 0.0 W/m2 CLR
04:10 8.6 °F 3.8 °F 1019.9 in WNW 19.3 mph 19.3 mph 72 % 0.0 in 0.0 W/m2 CLR
04:15 8.6 °F 4.0 °F 1019.9 in NW 24.1 mph 24.1 mph 73 % 0.0 in 0.0 W/m2 CLR
04:20 8.7 °F 3.9 °F 1019.9 in West 20.4 mph 20.4 mph 72 % 0.0 in 0.0 W/m2 CLR
04:25 8.7 °F 3.9 °F 1019.9 in WNW 22.5 mph 22.5 mph 72 % 0.0 in 0.0 W/m2 CLR
04:30 8.7 °F 3.9 °F 1019.9 in NW 24.1 mph 24.1 mph 72 % 0.0 in 0.0 W/m2 CLR
04:35 8.7 °F 3.9 °F 1019.9 in NW 20.4 mph 20.4 mph 72 % 0.0 in 0.0 W/m2 CLR
04:40 8.7 °F 3.9 °F 1019.9 in WNW 24.1 mph 24.1 mph 72 % 0.0 in 0.0 W/m2 CLR
04:45 8.8 °F 3.8 °F 1019.5 in WNW 20.4 mph 20.4 mph 71 % 0.0 in 0.0 W/m2 CLR
04:50 8.9 °F 3.9 °F 1019.5 in NW 38.9 mph 38.9 mph 71 % 0.0 in 0.0 W/m2 CLR
04:55 8.8 °F 3.8 °F 1019.5 in WNW 24.1 mph 24.1 mph 71 % 0.0 in 0.0 W/m2 CLR
05:00 8.8 °F 3.8 °F 1019.5 in West 25.9 mph 25.9 mph 71 % 0.0 in 0.0 W/m2 CLR
05:05 8.9 °F 3.7 °F 1019.5 in WNW 31.5 mph 31.5 mph 70 % 0.0 in 0.0 W/m2 CLR
05:10 8.9 °F 3.9 °F 1019.5 in WNW 27.8 mph 27.8 mph 71 % 0.0 in 0.0 W/m2 CLR
05:15 8.9 °F 3.7 °F 1019.5 in WNW 33.3 mph 33.3 mph 70 % 0.0 in 0.0 W/m2 CLR
05:20 8.8 °F 3.7 °F 1019.5 in NNW 27.8 mph 27.8 mph 70 % 0.0 in 0.0 W/m2 CLR
05:25 8.8 °F 3.8 °F 1019.9 in NW 29.6 mph 29.6 mph 71 % 0.0 in 0.0 W/m2 CLR
05:30 8.8 °F 3.8 °F 1019.5 in WNW 37.0 mph 37.0 mph 71 % 0.0 in 0.0 W/m2 CLR
05:35 8.8 °F 3.8 °F 1019.5 in WNW 25.9 mph 25.9 mph 71 % 0.0 in 0.0 W/m2 CLR
05:40 8.9 °F 3.7 °F 1019.5 in WNW 37.0 mph 37.0 mph 70 % 0.0 in 0.0 W/m2 CLR
05:45 8.9 °F 3.8 °F 1019.5 in WNW 33.8 mph 33.8 mph 70 % 0.0 in 0.0 W/m2 CLR
05:50 8.9 °F 3.8 °F 1019.9 in WNW 27.8 mph 27.8 mph 70 % 0.0 in 0.0 W/m2 CLR
05:55 8.9 °F 3.7 °F 1019.9 in NW 33.3 mph 33.3 mph 70 % 0.0 in 0.0 W/m2 CLR
06:00 8.9 °F 3.7 °F 1019.9 in WNW 27.8 mph 27.8 mph 70 % 0.0 in 0.0 W/m2 CLR
06:05 8.8 °F 3.7 °F 1019.9 in WNW 27.8 mph 27.8 mph 70 % 0.0 in 0.0 W/m2 CLR
06:10 8.9 °F 3.7 °F 1019.9 in WNW 31.5 mph 31.5 mph 70 % 0.0 in 0.0 W/m2 CLR
06:15 8.8 °F 3.7 °F 1019.9 in WNW 29.6 mph 29.6 mph 70 % 0.0 in 0.0 W/m2 CLR
06:20 8.8 °F 3.6 °F 1019.5 in West 25.9 mph 25.9 mph 70 % 0.0 in 0.0 W/m2 CLR
06:25 8.7 °F 3.6 °F 1019.5 in WNW 29.6 mph 29.6 mph 70 % 0.0 in 0.0 W/m2 CLR
06:30 8.9 °F 3.7 °F 1019.5 in WNW 40.7 mph 40.7 mph 70 % 0.0 in 0.0 W/m2 CLR
06:35 8.8 °F 3.7 °F 1019.5 in WNW 33.3 mph 33.3 mph 70 % 0.0 in 0.0 W/m2 CLR
06:40 8.8 °F 3.6 °F 1019.5 in West 38.9 mph 38.9 mph 70 % 0.0 in 0.0 W/m2 CLR
06:45 8.8 °F 3.6 °F 1019.5 in NW 29.6 mph 29.6 mph 70 % 0.0 in 0.0 W/m2 CLR
06:50 8.7 °F 3.7 °F 1019.5 in WNW 33.3 mph 33.3 mph 71 % 0.0 in 0.0 W/m2 CLR
06:55 8.6 °F 3.6 °F 1019.5 in NW 37.0 mph 37.0 mph 71 % 0.0 in 0.0 W/m2 CLR
07:00 8.6 °F 3.6 °F 1019.9 in NW 33.3 mph 33.3 mph 71 % 0.0 in 0.0 W/m2 CLR
07:05 8.5 °F 3.6 °F 1019.5 in WNW 31.5 mph 31.5 mph 71 % 0.0 in 0.0 W/m2 CLR
07:10 8.5 °F 3.6 °F 1019.5 in NW 38.9 mph 38.9 mph 71 % 0.0 in 0.0 W/m2 CLR
07:15 8.5 °F 3.6 °F 1019.5 in WNW 29.0 mph 29.0 mph 71 % 0.0 in 0.0 W/m2 CLR
07:20 8.4 °F 3.6 °F 1019.9 in NW 31.5 mph 31.5 mph 72 % 0.0 in 0.0 W/m2 CLR
07:26 8.5 °F 3.7 °F 1019.9 in NW 40.7 mph 40.7 mph 72 % 0.0 in 0.0 W/m2 CLR
07:31 8.5 °F 3.7 °F 1019.5 in NW 31.5 mph 31.5 mph 72 % 0.0 in 0.0 W/m2 CLR
07:36 8.6 °F 3.6 °F 1019.9 in WNW 33.8 mph 33.8 mph 71 % 0.0 in 0.0 W/m2 OVC
07:41 8.6 °F 3.7 °F 1019.9 in WNW 38.9 mph 38.9 mph 71 % 0.0 in 0.0 W/m2 OVC
07:46 8.7 °F 3.7 °F 1019.5 in West 46.3 mph 46.3 mph 71 % 0.0 in 5.0 W/m2 OVC
07:51 8.7 °F 3.7 °F 1019.5 in WNW 46.3 mph 46.3 mph 71 % 0.0 in 7.0 W/m2 BKN
07:56 8.7 °F 3.8 °F 1019.5 in WNW 41.8 mph 41.8 mph 71 % 0.0 in 11.0 W/m2 BKN
08:01 8.8 °F 3.8 °F 1019.9 in NW 38.9 mph 38.9 mph 71 % 0.0 in 12.0 W/m2 BKN
08:06 8.7 °F 3.8 °F 1019.9 in WNW 40.7 mph 40.7 mph 71 % 0.0 in 14.0 W/m2 BKN
22:09 11.7 °F 3.7 °F 1021.9 in WNW 57.9 mph 57.9 mph 58 % 0.0 in 0.0 W/m2 CLR
22:14 11.6 °F 3.8 °F 1021.9 in West 22.2 mph 22.2 mph 59 % 0.0 in 0.0 W/m2 CLR
22:19 11.6 °F 3.8 °F 1021.9 in West 20.4 mph 20.4 mph 59 % 0.0 in 0.0 W/m2 CLR
22:24 11.5 °F 3.8 °F 1021.9 in West 27.8 mph 27.8 mph 59 % 0.0 in 0.0 W/m2 CLR
22:29 11.4 °F 3.9 °F 1022.2 in NW 22.2 mph 22.2 mph 60 % 0.0 in 0.0 W/m2 CLR
22:34 11.3 °F 3.8 °F 1021.9 in WNW 18.5 mph 18.5 mph 60 % 0.0 in 0.0 W/m2 CLR
22:39 11.3 °F 3.8 °F 1022.2 in West 31.5 mph 31.5 mph 60 % 0.0 in 0.0 W/m2 CLR
22:44 11.3 °F 3.8 °F 1022.2 in WNW 20.9 mph 20.9 mph 60 % 0.0 in 0.0 W/m2 CLR
22:49 11.2 °F 3.7 °F 1022.2 in WNW 18.5 mph 18.5 mph 60 % 0.0 in 0.0 W/m2 CLR
22:54 11.1 °F 3.9 °F 1022.2 in West 24.1 mph 24.1 mph 61 % 0.0 in 0.0 W/m2 CLR
22:59 11.1 °F 3.8 °F 1022.6 in WNW 25.9 mph 25.9 mph 61 % 0.0 in 0.0 W/m2 CLR
23:04 11.0 °F 3.8 °F 1022.6 in West 20.4 mph 20.4 mph 61 % 0.0 in 0.0 W/m2 CLR
23:09 10.9 °F 3.7 °F 1022.6 in WNW 24.1 mph 24.1 mph 61 % 0.0 in 0.0 W/m2 CLR
23:14 10.8 °F 3.6 °F 1022.6 in West 27.8 mph 27.8 mph 61 % 0.0 in 0.0 W/m2 CLR
23:19 10.7 °F 3.7 °F 1022.6 in WNW 29.6 mph 29.6 mph 62 % 0.0 in 0.0 W/m2 CLR
23:25 10.6 °F 3.8 °F 1022.6 in West 22.2 mph 22.2 mph 63 % 0.0 in 0.0 W/m2 CLR
23:30 10.5 °F 3.7 °F 1022.9 in West 19.3 mph 19.3 mph 63 % 0.0 in 0.0 W/m2 CLR
23:34 10.5 °F 3.7 °F 1022.9 in WSW 24.1 mph 24.1 mph 63 % 0.0 in 0.0 W/m2 CLR
23:40 10.4 °F 3.7 °F 1022.9 in WSW 22.2 mph 22.2 mph 63 % 0.0 in 0.0 W/m2 CLR
23:45 10.4 °F 3.9 °F 1022.9 in West 22.2 mph 22.2 mph 64 % 0.0 in 0.0 W/m2 CLR
23:55 10.3 °F 3.8 °F 1022.9 in West 27.8 mph 27.8 mph 64 % 0.0 in 0.0 W/m2 CLR
Lo Temps de Massalio
Compliments of Weather Underground - 768 kb